sensor_id;sensor_type;location;lat;lon;timestamp;P1;durP1;ratioP1;P2;durP2;ratioP2
76939;SDS011;65885;55.848;35.916;2023-05-14T00:02:35;1.98;;;1.88;;
76939;SDS011;65885;55.848;35.916;2023-05-14T00:05:03;2.15;;;1.92;;
76939;SDS011;65885;55.848;35.916;2023-05-14T00:07:31;3.65;;;2.00;;
76939;SDS011;65885;55.848;35.916;2023-05-14T00:09:59;2.25;;;2.05;;
76939;SDS011;65885;55.848;35.916;2023-05-14T00:12:30;1.90;;;1.58;;
76939;SDS011;65885;55.848;35.916;2023-05-14T00:14:58;1.95;;;1.70;;
76939;SDS011;65885;55.848;35.916;2023-05-14T00:17:26;2.25;;;2.13;;
76939;SDS011;65885;55.848;35.916;2023-05-14T00:19:53;2.30;;;2.10;;
76939;SDS011;65885;55.848;35.916;2023-05-14T00:22:20;2.60;;;1.83;;
76939;SDS011;65885;55.848;35.916;2023-05-14T00:24:48;2.03;;;1.92;;
76939;SDS011;65885;55.848;35.916;2023-05-14T00:27:16;2.30;;;2.10;;
76939;SDS011;65885;55.848;35.916;2023-05-14T00:29:44;2.83;;;2.22;;
76939;SDS011;65885;55.848;35.916;2023-05-14T00:32:12;2.38;;;2.15;;
76939;SDS011;65885;55.848;35.916;2023-05-14T00:34:40;3.33;;;2.30;;
76939;SDS011;65885;55.848;35.916;2023-05-14T00:37:07;2.35;;;1.63;;
76939;SDS011;65885;55.848;35.916;2023-05-14T00:39:34;1.67;;;1.20;;
76939;SDS011;65885;55.848;35.916;2023-05-14T00:42:02;2.97;;;1.60;;
76939;SDS011;65885;55.848;35.916;2023-05-14T00:44:29;3.25;;;2.10;;
76939;SDS011;65885;55.848;35.916;2023-05-14T00:46:58;2.33;;;1.73;;
76939;SDS011;65885;55.848;35.916;2023-05-14T00:49:26;1.77;;;1.67;;
76939;SDS011;65885;55.848;35.916;2023-05-14T00:51:54;3.47;;;1.73;;
76939;SDS011;65885;55.848;35.916;2023-05-14T00:54:23;2.03;;;1.88;;
76939;SDS011;65885;55.848;35.916;2023-05-14T00:56:51;1.65;;;1.55;;
76939;SDS011;65885;55.848;35.916;2023-05-14T00:59:19;2.00;;;1.80;;
76939;SDS011;65885;55.848;35.916;2023-05-14T01:01:47;3.05;;;1.70;;
76939;SDS011;65885;55.848;35.916;2023-05-14T01:04:16;3.00;;;1.30;;
76939;SDS011;65885;55.848;35.916;2023-05-14T01:06:46;2.15;;;1.40;;
76939;SDS011;65885;55.848;35.916;2023-05-14T01:09:21;3.67;;;1.90;;
76939;SDS011;65885;55.848;35.916;2023-05-14T01:11:56;1.58;;;1.48;;
76939;SDS011;65885;55.848;35.916;2023-05-14T01:14:31;1.70;;;1.60;;
76939;SDS011;65885;55.848;35.916;2023-05-14T01:17:07;2.33;;;1.90;;
76939;SDS011;65885;55.848;35.916;2023-05-14T01:19:39;1.55;;;1.45;;
76939;SDS011;65885;55.848;35.916;2023-05-14T01:22:10;1.35;;;1.25;;
76939;SDS011;65885;55.848;35.916;2023-05-14T01:24:38;2.72;;;1.20;;
76939;SDS011;65885;55.848;35.916;2023-05-14T01:27:07;1.88;;;1.73;;
76939;SDS011;65885;55.848;35.916;2023-05-14T01:29:39;2.20;;;2.00;;
76939;SDS011;65885;55.848;35.916;2023-05-14T01:32:11;2.05;;;1.83;;
76939;SDS011;65885;55.848;35.916;2023-05-14T01:34:41;4.85;;;2.13;;
76939;SDS011;65885;55.848;35.916;2023-05-14T01:37:12;2.10;;;1.90;;
76939;SDS011;65885;55.848;35.916;2023-05-14T01:39:40;3.58;;;1.92;;
76939;SDS011;65885;55.848;35.916;2023-05-14T01:42:08;2.45;;;1.67;;
76939;SDS011;65885;55.848;35.916;2023-05-14T01:44:36;1.75;;;1.65;;
76939;SDS011;65885;55.848;35.916;2023-05-14T01:47:04;1.90;;;1.65;;
76939;SDS011;65885;55.848;35.916;2023-05-14T01:49:31;3.05;;;2.42;;
76939;SDS011;65885;55.848;35.916;2023-05-14T01:51:59;1.98;;;1.88;;
76939;SDS011;65885;55.848;35.916;2023-05-14T01:54:28;2.15;;;1.95;;
76939;SDS011;65885;55.848;35.916;2023-05-14T01:56:55;2.70;;;1.67;;
76939;SDS011;65885;55.848;35.916;2023-05-14T01:59:23;3.35;;;1.90;;
76939;SDS011;65885;55.848;35.916;2023-05-14T02:01:50;2.53;;;1.80;;
76939;SDS011;65885;55.848;35.916;2023-05-14T02:04:18;2.20;;;2.00;;
76939;SDS011;65885;55.848;35.916;2023-05-14T02:06:45;1.80;;;1.70;;
76939;SDS011;65885;55.848;35.916;2023-05-14T02:09:12;2.05;;;1.77;;
76939;SDS011;65885;55.848;35.916;2023-05-14T02:11:41;2.10;;;1.90;;
76939;SDS011;65885;55.848;35.916;2023-05-14T02:14:09;2.25;;;1.98;;
76939;SDS011;65885;55.848;35.916;2023-05-14T02:16:37;2.65;;;2.13;;
76939;SDS011;65885;55.848;35.916;2023-05-14T02:19:04;2.60;;;2.00;;
76939;SDS011;65885;55.848;35.916;2023-05-14T02:21:52;3.30;;;2.13;;
76939;SDS011;65885;55.848;35.916;2023-05-14T02:24:19;2.35;;;2.15;;
76939;SDS011;65885;55.848;35.916;2023-05-14T02:26:48;2.03;;;1.80;;
76939;SDS011;65885;55.848;35.916;2023-05-14T02:29:15;2.60;;;1.73;;
76939;SDS011;65885;55.848;35.916;2023-05-14T02:31:42;1.83;;;1.65;;
76939;SDS011;65885;55.848;35.916;2023-05-14T02:34:10;2.17;;;1.92;;
76939;SDS011;65885;55.848;35.916;2023-05-14T02:36:37;2.80;;;1.98;;
76939;SDS011;65885;55.848;35.916;2023-05-14T02:39:05;2.08;;;1.92;;
76939;SDS011;65885;55.848;35.916;2023-05-14T02:41:33;4.70;;;1.95;;
76939;SDS011;65885;55.848;35.916;2023-05-14T02:44:01;2.35;;;1.80;;
76939;SDS011;65885;55.848;35.916;2023-05-14T02:46:29;2.33;;;1.80;;
76939;SDS011;65885;55.848;35.916;2023-05-14T02:48:57;2.58;;;2.28;;
76939;SDS011;65885;55.848;35.916;2023-05-14T02:51:25;2.13;;;2.00;;
76939;SDS011;65885;55.848;35.916;2023-05-14T02:53:52;3.58;;;1.50;;
76939;SDS011;65885;55.848;35.916;2023-05-14T02:56:19;2.45;;;2.13;;
76939;SDS011;65885;55.848;35.916;2023-05-14T02:58:47;2.80;;;2.08;;
76939;SDS011;65885;55.848;35.916;2023-05-14T03:01:16;2.20;;;2.00;;
76939;SDS011;65885;55.848;35.916;2023-05-14T03:03:44;4.65;;;2.67;;
76939;SDS011;65885;55.848;35.916;2023-05-14T03:06:12;2.53;;;2.30;;
76939;SDS011;65885;55.848;35.916;2023-05-14T03:08:39;2.90;;;2.60;;
76939;SDS011;65885;55.848;35.916;2023-05-14T03:11:07;2.60;;;2.40;;
76939;SDS011;65885;55.848;35.916;2023-05-14T03:13:34;2.90;;;2.28;;
76939;SDS011;65885;55.848;35.916;2023-05-14T03:16:02;2.83;;;2.50;;
76939;SDS011;65885;55.848;35.916;2023-05-14T03:18:31;2.42;;;2.20;;
76939;SDS011;65885;55.848;35.916;2023-05-14T03:21:00;3.05;;;2.50;;
76939;SDS011;65885;55.848;35.916;2023-05-14T03:23:28;4.45;;;2.17;;
76939;SDS011;65885;55.848;35.916;2023-05-14T03:25:56;2.47;;;2.03;;
76939;SDS011;65885;55.848;35.916;2023-05-14T03:28:23;3.10;;;2.80;;
76939;SDS011;65885;55.848;35.916;2023-05-14T03:30:51;3.05;;;2.50;;
76939;SDS011;65885;55.848;35.916;2023-05-14T03:33:19;3.88;;;2.20;;
76939;SDS011;65885;55.848;35.916;2023-05-14T03:35:48;3.00;;;2.22;;
76939;SDS011;65885;55.848;35.916;2023-05-14T03:38:16;2.33;;;1.98;;
76939;SDS011;65885;55.848;35.916;2023-05-14T03:40:43;3.95;;;2.53;;
76939;SDS011;65885;55.848;35.916;2023-05-14T03:43:11;2.65;;;2.03;;
76939;SDS011;65885;55.848;35.916;2023-05-14T03:45:39;2.90;;;1.73;;
76939;SDS011;65885;55.848;35.916;2023-05-14T03:48:06;2.20;;;2.00;;
76939;SDS011;65885;55.848;35.916;2023-05-14T03:50:34;2.28;;;2.00;;
76939;SDS011;65885;55.848;35.916;2023-05-14T03:53:03;2.13;;;1.75;;
76939;SDS011;65885;55.848;35.916;2023-05-14T03:55:30;2.42;;;2.22;;
76939;SDS011;65885;55.848;35.916;2023-05-14T03:57:58;2.58;;;2.10;;
76939;SDS011;65885;55.848;35.916;2023-05-14T04:00:26;3.95;;;1.75;;
76939;SDS011;65885;55.848;35.916;2023-05-14T04:02:53;2.35;;;1.80;;
76939;SDS011;65885;55.848;35.916;2023-05-14T04:05:21;1.83;;;1.50;;
76939;SDS011;65885;55.848;35.916;2023-05-14T04:07:48;2.53;;;2.33;;
76939;SDS011;65885;55.848;35.916;2023-05-14T04:10:18;3.38;;;1.95;;
76939;SDS011;65885;55.848;35.916;2023-05-14T04:12:46;2.10;;;1.90;;
76939;SDS011;65885;55.848;35.916;2023-05-14T04:15:13;1.95;;;1.30;;
76939;SDS011;65885;55.848;35.916;2023-05-14T04:17:41;4.53;;;1.95;;
76939;SDS011;65885;55.848;35.916;2023-05-14T04:20:08;1.92;;;1.40;;
76939;SDS011;65885;55.848;35.916;2023-05-14T04:22:36;3.88;;;2.38;;
76939;SDS011;65885;55.848;35.916;2023-05-14T04:25:04;1.55;;;1.10;;
76939;SDS011;65885;55.848;35.916;2023-05-14T04:27:33;2.65;;;1.60;;
76939;SDS011;65885;55.848;35.916;2023-05-14T04:30:01;1.65;;;1.55;;
76939;SDS011;65885;55.848;35.916;2023-05-14T04:32:31;3.05;;;1.67;;
76939;SDS011;65885;55.848;35.916;2023-05-14T04:34:58;1.73;;;1.55;;
76939;SDS011;65885;55.848;35.916;2023-05-14T04:37:26;2.70;;;1.33;;
76939;SDS011;65885;55.848;35.916;2023-05-14T04:39:53;1.50;;;1.40;;
76939;SDS011;65885;55.848;35.916;2023-05-14T04:42:20;1.42;;;1.33;;
76939;SDS011;65885;55.848;35.916;2023-05-14T04:44:49;1.58;;;1.30;;
76939;SDS011;65885;55.848;35.916;2023-05-14T04:47:17;1.92;;;1.33;;
76939;SDS011;65885;55.848;35.916;2023-05-14T04:49:45;2.78;;;1.52;;
76939;SDS011;65885;55.848;35.916;2023-05-14T04:52:12;1.50;;;1.40;;
76939;SDS011;65885;55.848;35.916;2023-05-14T04:54:40;1.83;;;1.60;;
76939;SDS011;65885;55.848;35.916;2023-05-14T04:57:08;1.70;;;1.52;;
76939;SDS011;65885;55.848;35.916;2023-05-14T04:59:35;0.90;;;0.90;;
76939;SDS011;65885;55.848;35.916;2023-05-14T05:02:04;2.33;;;1.42;;
76939;SDS011;65885;55.848;35.916;2023-05-14T05:04:32;1.20;;;1.10;;
76939;SDS011;65885;55.848;35.916;2023-05-14T05:06:59;1.58;;;1.42;;
76939;SDS011;65885;55.848;35.916;2023-05-14T05:09:27;1.65;;;1.30;;
76939;SDS011;65885;55.848;35.916;2023-05-14T05:11:55;1.58;;;1.40;;
76939;SDS011;65885;55.848;35.916;2023-05-14T05:14:22;1.77;;;1.30;;
76939;SDS011;65885;55.848;35.916;2023-05-14T05:16:50;1.67;;;1.35;;
76939;SDS011;65885;55.848;35.916;2023-05-14T05:19:19;1.33;;;1.23;;
76939;SDS011;65885;55.848;35.916;2023-05-14T05:21:46;2.58;;;1.33;;
76939;SDS011;65885;55.848;35.916;2023-05-14T05:24:14;1.52;;;1.42;;
76939;SDS011;65885;55.848;35.916;2023-05-14T05:26:42;1.10;;;1.00;;
76939;SDS011;65885;55.848;35.916;2023-05-14T05:29:09;2.22;;;1.30;;
76939;SDS011;65885;55.848;35.916;2023-05-14T05:31:36;1.80;;;1.20;;
76939;SDS011;65885;55.848;35.916;2023-05-14T05:34:04;1.50;;;1.40;;
76939;SDS011;65885;55.848;35.916;2023-05-14T05:36:33;1.77;;;1.35;;
76939;SDS011;65885;55.848;35.916;2023-05-14T05:39:01;1.00;;;0.90;;
76939;SDS011;65885;55.848;35.916;2023-05-14T05:41:28;2.78;;;1.42;;
76939;SDS011;65885;55.848;35.916;2023-05-14T05:43:55;1.02;;;0.93;;
76939;SDS011;65885;55.848;35.916;2023-05-14T05:46:23;1.45;;;1.35;;
76939;SDS011;65885;55.848;35.916;2023-05-14T05:48:50;1.10;;;0.90;;
76939;SDS011;65885;55.848;35.916;2023-05-14T05:51:18;0.90;;;0.90;;
76939;SDS011;65885;55.848;35.916;2023-05-14T05:53:47;2.45;;;1.38;;
76939;SDS011;65885;55.848;35.916;2023-05-14T05:56:15;1.10;;;1.00;;
76939;SDS011;65885;55.848;35.916;2023-05-14T05:58:43;1.45;;;1.20;;
76939;SDS011;65885;55.848;35.916;2023-05-14T06:01:11;1.10;;;1.00;;
76939;SDS011;65885;55.848;35.916;2023-05-14T06:03:38;1.13;;;1.02;;
76939;SDS011;65885;55.848;35.916;2023-05-14T06:06:05;1.00;;;0.90;;
76939;SDS011;65885;55.848;35.916;2023-05-14T06:08:33;1.92;;;1.10;;
76939;SDS011;65885;55.848;35.916;2023-05-14T06:11:02;0.80;;;0.80;;
76939;SDS011;65885;55.848;35.916;2023-05-14T06:13:30;1.13;;;1.02;;
76939;SDS011;65885;55.848;35.916;2023-05-14T06:15:57;1.27;;;0.80;;
76939;SDS011;65885;55.848;35.916;2023-05-14T06:18:25;0.80;;;0.80;;
76939;SDS011;65885;55.848;35.916;2023-05-14T06:20:52;0.60;;;0.50;;
76939;SDS011;65885;55.848;35.916;2023-05-14T06:23:21;0.52;;;0.52;;
76939;SDS011;65885;55.848;35.916;2023-05-14T06:25:48;0.60;;;0.60;;
76939;SDS011;65885;55.848;35.916;2023-05-14T06:28:18;0.70;;;0.70;;
76939;SDS011;65885;55.848;35.916;2023-05-14T06:30:48;1.05;;;0.63;;
76939;SDS011;65885;55.848;35.916;2023-05-14T06:33:16;0.50;;;0.50;;
76939;SDS011;65885;55.848;35.916;2023-05-14T06:35:43;1.25;;;0.70;;
76939;SDS011;65885;55.848;35.916;2023-05-14T06:38:11;0.50;;;0.40;;
76939;SDS011;65885;55.848;35.916;2023-05-14T06:40:38;0.68;;;0.68;;
76939;SDS011;65885;55.848;35.916;2023-05-14T06:43:06;0.55;;;0.52;;
76939;SDS011;65885;55.848;35.916;2023-05-14T06:45:35;0.60;;;0.45;;
76939;SDS011;65885;55.848;35.916;2023-05-14T06:48:03;0.65;;;0.63;;
76939;SDS011;65885;55.848;35.916;2023-05-14T06:50:31;0.50;;;0.50;;
76939;SDS011;65885;55.848;35.916;2023-05-14T06:52:59;0.88;;;0.60;;
76939;SDS011;65885;55.848;35.916;2023-05-14T06:55:27;1.17;;;0.55;;
76939;SDS011;65885;55.848;35.916;2023-05-14T06:57:54;0.50;;;0.50;;
76939;SDS011;65885;55.848;35.916;2023-05-14T07:00:22;0.50;;;0.40;;
76939;SDS011;65885;55.848;35.916;2023-05-14T07:02:51;0.80;;;0.80;;
76939;SDS011;65885;55.848;35.916;2023-05-14T07:05:18;0.82;;;0.40;;
76939;SDS011;65885;55.848;35.916;2023-05-14T07:07:46;0.60;;;0.60;;
76939;SDS011;65885;55.848;35.916;2023-05-14T07:10:13;0.52;;;0.50;;
76939;SDS011;65885;55.848;35.916;2023-05-14T07:12:41;0.80;;;0.70;;
76939;SDS011;65885;55.848;35.916;2023-05-14T07:15:09;0.63;;;0.63;;
76939;SDS011;65885;55.848;35.916;2023-05-14T07:17:37;0.95;;;0.75;;
76939;SDS011;65885;55.848;35.916;2023-05-14T07:20:07;1.08;;;0.70;;
76939;SDS011;65885;55.848;35.916;2023-05-14T07:22:35;1.08;;;0.63;;
76939;SDS011;65885;55.848;35.916;2023-05-14T07:25:03;0.60;;;0.50;;
76939;SDS011;65885;55.848;35.916;2023-05-14T07:27:31;1.35;;;0.60;;
76939;SDS011;65885;55.848;35.916;2023-05-14T07:29:59;0.65;;;0.65;;
76939;SDS011;65885;55.848;35.916;2023-05-14T07:32:26;0.60;;;0.60;;
76939;SDS011;65885;55.848;35.916;2023-05-14T07:34:53;0.75;;;0.32;;
76939;SDS011;65885;55.848;35.916;2023-05-14T07:37:23;0.60;;;0.60;;
76939;SDS011;65885;55.848;35.916;2023-05-14T07:42:19;0.68;;;0.50;;
76939;SDS011;65885;55.848;35.916;2023-05-14T07:44:46;0.60;;;0.60;;
76939;SDS011;65885;55.848;35.916;2023-05-14T07:47:15;0.60;;;0.55;;
76939;SDS011;65885;55.848;35.916;2023-05-14T07:49:43;0.60;;;0.60;;
76939;SDS011;65885;55.848;35.916;2023-05-14T07:52:10;1.23;;;0.80;;
76939;SDS011;65885;55.848;35.916;2023-05-14T07:54:39;0.70;;;0.63;;
76939;SDS011;65885;55.848;35.916;2023-05-14T07:57:07;1.10;;;0.50;;
76939;SDS011;65885;55.848;35.916;2023-05-14T07:59:34;1.17;;;0.70;;
76939;SDS011;65885;55.848;35.916;2023-05-14T08:02:01;0.77;;;0.77;;
76939;SDS011;65885;55.848;35.916;2023-05-14T08:04:29;1.10;;;1.00;;
76939;SDS011;65885;55.848;35.916;2023-05-14T08:06:56;1.50;;;0.70;;
76939;SDS011;65885;55.848;35.916;2023-05-14T08:09:24;2.53;;;0.70;;
76939;SDS011;65885;55.848;35.916;2023-05-14T08:11:53;0.70;;;0.68;;
76939;SDS011;65885;55.848;35.916;2023-05-14T08:14:20;0.73;;;0.73;;
76939;SDS011;65885;55.848;35.916;2023-05-14T08:16:48;0.60;;;0.60;;
76939;SDS011;65885;55.848;35.916;2023-05-14T08:19:15;1.73;;;0.82;;
76939;SDS011;65885;55.848;35.916;2023-05-14T08:21:42;0.75;;;0.70;;
76939;SDS011;65885;55.848;35.916;2023-05-14T08:24:10;0.75;;;0.75;;
76939;SDS011;65885;55.848;35.916;2023-05-14T08:26:39;2.67;;;0.88;;
76939;SDS011;65885;55.848;35.916;2023-05-14T08:29:09;1.63;;;0.80;;
76939;SDS011;65885;55.848;35.916;2023-05-14T08:31:36;1.40;;;0.80;;
76939;SDS011;65885;55.848;35.916;2023-05-14T08:34:04;0.82;;;0.70;;
76939;SDS011;65885;55.848;35.916;2023-05-14T08:36:32;0.77;;;0.57;;
76939;SDS011;65885;55.848;35.916;2023-05-14T08:38:59;1.02;;;0.93;;
76939;SDS011;65885;55.848;35.916;2023-05-14T08:41:27;0.85;;;0.65;;
76939;SDS011;65885;55.848;35.916;2023-05-14T08:43:56;0.75;;;0.70;;
76939;SDS011;65885;55.848;35.916;2023-05-14T08:46:29;0.73;;;0.60;;
76939;SDS011;65885;55.848;35.916;2023-05-14T08:48:59;0.60;;;0.60;;
76939;SDS011;65885;55.848;35.916;2023-05-14T08:51:30;0.85;;;0.77;;
76939;SDS011;65885;55.848;35.916;2023-05-14T08:53:59;0.80;;;0.68;;
76939;SDS011;65885;55.848;35.916;2023-05-14T08:56:29;1.05;;;0.70;;
76939;SDS011;65885;55.848;35.916;2023-05-14T08:58:58;0.88;;;0.70;;
76939;SDS011;65885;55.848;35.916;2023-05-14T09:01:26;0.95;;;0.70;;
76939;SDS011;65885;55.848;35.916;2023-05-14T09:03:55;0.60;;;0.50;;
76939;SDS011;65885;55.848;35.916;2023-05-14T09:06:25;0.57;;;0.55;;
76939;SDS011;65885;55.848;35.916;2023-05-14T09:08:54;0.68;;;0.50;;
76939;SDS011;65885;55.848;35.916;2023-05-14T09:11:21;0.85;;;0.40;;
76939;SDS011;65885;55.848;35.916;2023-05-14T09:13:49;0.55;;;0.45;;
76939;SDS011;65885;55.848;35.916;2023-05-14T09:16:17;0.43;;;0.30;;
76939;SDS011;65885;55.848;35.916;2023-05-14T09:18:47;0.95;;;0.40;;
76939;SDS011;65885;55.848;35.916;2023-05-14T09:23:43;0.73;;;0.47;;
76939;SDS011;65885;55.848;35.916;2023-05-14T09:26:15;0.60;;;0.40;;
76939;SDS011;65885;55.848;35.916;2023-05-14T09:28:43;1.10;;;0.45;;
76939;SDS011;65885;55.848;35.916;2023-05-14T09:31:10;0.75;;;0.60;;
76939;SDS011;65885;55.848;35.916;2023-05-14T09:33:38;0.43;;;0.40;;
76939;SDS011;65885;55.848;35.916;2023-05-14T09:36:09;0.30;;;0.30;;
76939;SDS011;65885;55.848;35.916;2023-05-14T09:38:36;0.38;;;0.38;;
76939;SDS011;65885;55.848;35.916;2023-05-14T09:41:04;0.35;;;0.30;;
76939;SDS011;65885;55.848;35.916;2023-05-14T09:43:31;0.52;;;0.50;;
76939;SDS011;65885;55.848;35.916;2023-05-14T09:45:58;0.80;;;0.57;;
76939;SDS011;65885;55.848;35.916;2023-05-14T09:48:26;0.30;;;0.30;;
76939;SDS011;65885;55.848;35.916;2023-05-14T09:50:54;1.13;;;0.50;;
76939;SDS011;65885;55.848;35.916;2023-05-14T09:53:24;0.43;;;0.40;;
76939;SDS011;65885;55.848;35.916;2023-05-14T09:55:51;0.75;;;0.60;;
76939;SDS011;65885;55.848;35.916;2023-05-14T09:58:19;1.38;;;0.47;;
76939;SDS011;65885;55.848;35.916;2023-05-14T10:00:46;2.53;;;0.60;;
76939;SDS011;65885;55.848;35.916;2023-05-14T10:03:14;1.63;;;0.47;;
76939;SDS011;65885;55.848;35.916;2023-05-14T10:05:42;1.20;;;0.40;;
76939;SDS011;65885;55.848;35.916;2023-05-14T10:08:11;0.60;;;0.50;;
76939;SDS011;65885;55.848;35.916;2023-05-14T10:10:47;0.50;;;0.50;;
76939;SDS011;65885;55.848;35.916;2023-05-14T10:13:18;1.73;;;0.60;;
76939;SDS011;65885;55.848;35.916;2023-05-14T10:15:48;0.93;;;0.43;;
76939;SDS011;65885;55.848;35.916;2023-05-14T10:18:23;0.73;;;0.50;;
76939;SDS011;65885;55.848;35.916;2023-05-14T10:20:55;0.50;;;0.50;;
76939;SDS011;65885;55.848;35.916;2023-05-14T10:23:28;0.40;;;0.40;;
76939;SDS011;65885;55.848;35.916;2023-05-14T10:25:57;0.47;;;0.47;;
76939;SDS011;65885;55.848;35.916;2023-05-14T10:30:53;1.48;;;0.60;;
76939;SDS011;65885;55.848;35.916;2023-05-14T10:33:21;1.33;;;0.80;;
76939;SDS011;65885;55.848;35.916;2023-05-14T10:35:59;0.50;;;0.50;;
76939;SDS011;65885;55.848;35.916;2023-05-14T10:38:27;0.43;;;0.43;;
76939;SDS011;65885;55.848;35.916;2023-05-14T10:40:57;0.50;;;0.50;;
76939;SDS011;65885;55.848;35.916;2023-05-14T10:43:26;0.95;;;0.75;;
76939;SDS011;65885;55.848;35.916;2023-05-14T10:45:57;0.82;;;0.60;;
76939;SDS011;65885;55.848;35.916;2023-05-14T10:48:27;1.95;;;0.82;;
76939;SDS011;65885;55.848;35.916;2023-05-14T10:50:55;0.73;;;0.73;;
76939;SDS011;65885;55.848;35.916;2023-05-14T10:53:33;1.05;;;0.63;;
76939;SDS011;65885;55.848;35.916;2023-05-14T10:56:04;2.47;;;0.95;;
76939;SDS011;65885;55.848;35.916;2023-05-14T10:58:36;0.60;;;0.47;;
76939;SDS011;65885;55.848;35.916;2023-05-14T11:01:06;0.70;;;0.70;;
76939;SDS011;65885;55.848;35.916;2023-05-14T11:03:37;0.68;;;0.50;;
76939;SDS011;65885;55.848;35.916;2023-05-14T11:06:09;1.13;;;0.70;;
76939;SDS011;65885;55.848;35.916;2023-05-14T11:08:39;1.00;;;0.70;;
76939;SDS011;65885;55.848;35.916;2023-05-14T11:11:08;0.95;;;0.60;;
76939;SDS011;65885;55.848;35.916;2023-05-14T11:13:36;1.77;;;0.60;;
76939;SDS011;65885;55.848;35.916;2023-05-14T11:16:04;1.02;;;0.63;;
76939;SDS011;65885;55.848;35.916;2023-05-14T11:18:33;1.75;;;0.57;;
76939;SDS011;65885;55.848;35.916;2023-05-14T11:21:03;0.52;;;0.50;;
76939;SDS011;65885;55.848;35.916;2023-05-14T11:23:30;0.90;;;0.60;;
76939;SDS011;65885;55.848;35.916;2023-05-14T11:25:58;0.60;;;0.60;;
76939;SDS011;65885;55.848;35.916;2023-05-14T11:28:27;0.90;;;0.50;;
76939;SDS011;65885;55.848;35.916;2023-05-14T11:30:55;0.80;;;0.65;;
76939;SDS011;65885;55.848;35.916;2023-05-14T11:33:23;0.93;;;0.77;;
76939;SDS011;65885;55.848;35.916;2023-05-14T11:38:21;0.50;;;0.50;;
76939;SDS011;65885;55.848;35.916;2023-05-14T11:40:51;0.60;;;0.60;;
76939;SDS011;65885;55.848;35.916;2023-05-14T11:43:19;1.52;;;0.75;;
76939;SDS011;65885;55.848;35.916;2023-05-14T11:45:49;0.85;;;0.50;;
76939;SDS011;65885;55.848;35.916;2023-05-14T11:50:46;0.65;;;0.60;;
76939;SDS011;65885;55.848;35.916;2023-05-14T11:53:16;0.70;;;0.60;;
76939;SDS011;65885;55.848;35.916;2023-05-14T11:55:44;2.28;;;0.80;;
76939;SDS011;65885;55.848;35.916;2023-05-14T11:58:12;0.77;;;0.77;;
76939;SDS011;65885;55.848;35.916;2023-05-14T12:00:43;0.73;;;0.73;;
76939;SDS011;65885;55.848;35.916;2023-05-14T12:03:12;0.90;;;0.80;;
76939;SDS011;65885;55.848;35.916;2023-05-14T12:05:39;0.88;;;0.88;;
76939;SDS011;65885;55.848;35.916;2023-05-14T12:08:19;0.63;;;0.63;;
76939;SDS011;65885;55.848;35.916;2023-05-14T12:10:47;1.17;;;0.95;;
76939;SDS011;65885;55.848;35.916;2023-05-14T12:13:14;0.65;;;0.65;;
76939;SDS011;65885;55.848;35.916;2023-05-14T12:15:45;0.60;;;0.60;;
76939;SDS011;65885;55.848;35.916;2023-05-14T12:18:23;0.80;;;0.73;;
76939;SDS011;65885;55.848;35.916;2023-05-14T12:20:51;0.70;;;0.70;;
76939;SDS011;65885;55.848;35.916;2023-05-14T12:23:23;2.15;;;0.90;;
76939;SDS011;65885;55.848;35.916;2023-05-14T12:25:51;5.68;;;0.70;;
76939;SDS011;65885;55.848;35.916;2023-05-14T12:28:19;0.93;;;0.70;;
76939;SDS011;65885;55.848;35.916;2023-05-14T12:30:54;0.95;;;0.90;;
76939;SDS011;65885;55.848;35.916;2023-05-14T12:33:23;0.80;;;0.70;;
76939;SDS011;65885;55.848;35.916;2023-05-14T12:35:52;1.35;;;0.70;;
76939;SDS011;65885;55.848;35.916;2023-05-14T12:38:21;0.80;;;0.68;;
76939;SDS011;65885;55.848;35.916;2023-05-14T12:40:49;0.80;;;0.80;;
76939;SDS011;65885;55.848;35.916;2023-05-14T12:43:16;1.42;;;0.80;;
76939;SDS011;65885;55.848;35.916;2023-05-14T12:45:44;0.77;;;0.77;;
76939;SDS011;65885;55.848;35.916;2023-05-14T12:48:12;0.80;;;0.80;;
76939;SDS011;65885;55.848;35.916;2023-05-14T12:50:41;1.35;;;0.65;;
76939;SDS011;65885;55.848;35.916;2023-05-14T12:53:09;0.93;;;0.80;;
76939;SDS011;65885;55.848;35.916;2023-05-14T12:55:40;1.33;;;0.90;;
76939;SDS011;65885;55.848;35.916;2023-05-14T12:58:08;0.77;;;0.75;;
76939;SDS011;65885;55.848;35.916;2023-05-14T13:00:35;1.13;;;0.80;;
76939;SDS011;65885;55.848;35.916;2023-05-14T13:03:03;0.73;;;0.73;;
76939;SDS011;65885;55.848;35.916;2023-05-14T13:05:30;1.15;;;0.80;;
76939;SDS011;65885;55.848;35.916;2023-05-14T13:07:59;1.95;;;0.90;;
76939;SDS011;65885;55.848;35.916;2023-05-14T13:12:55;1.67;;;0.80;;
76939;SDS011;65885;55.848;35.916;2023-05-14T13:15:23;2.78;;;1.00;;
76939;SDS011;65885;55.848;35.916;2023-05-14T13:17:50;0.73;;;0.73;;
76939;SDS011;65885;55.848;35.916;2023-05-14T13:20:17;1.92;;;0.70;;
76939;SDS011;65885;55.848;35.916;2023-05-14T13:22:45;0.85;;;0.80;;
76939;SDS011;65885;55.848;35.916;2023-05-14T13:25:14;0.73;;;0.50;;
76939;SDS011;65885;55.848;35.916;2023-05-14T13:27:42;0.70;;;0.70;;
76939;SDS011;65885;55.848;35.916;2023-05-14T13:30:10;0.80;;;0.70;;
76939;SDS011;65885;55.848;35.916;2023-05-14T13:32:37;1.40;;;0.73;;
76939;SDS011;65885;55.848;35.916;2023-05-14T13:35:05;1.52;;;0.80;;
76939;SDS011;65885;55.848;35.916;2023-05-14T13:37:33;1.45;;;0.88;;
76939;SDS011;65885;55.848;35.916;2023-05-14T13:40:00;0.80;;;0.80;;
76939;SDS011;65885;55.848;35.916;2023-05-14T13:42:32;1.90;;;0.70;;
76939;SDS011;65885;55.848;35.916;2023-05-14T13:44:59;0.90;;;0.90;;
76939;SDS011;65885;55.848;35.916;2023-05-14T13:47:31;0.90;;;0.60;;
76939;SDS011;65885;55.848;35.916;2023-05-14T13:49:59;1.27;;;0.68;;
76939;SDS011;65885;55.848;35.916;2023-05-14T13:52:31;0.80;;;0.80;;
76939;SDS011;65885;55.848;35.916;2023-05-14T13:54:59;1.48;;;0.95;;
76939;SDS011;65885;55.848;35.916;2023-05-14T13:57:26;1.50;;;0.90;;
76939;SDS011;65885;55.848;35.916;2023-05-14T13:59:55;1.45;;;0.73;;
76939;SDS011;65885;55.848;35.916;2023-05-14T14:02:22;1.63;;;0.73;;
76939;SDS011;65885;55.848;35.916;2023-05-14T14:04:50;1.65;;;1.02;;
76939;SDS011;65885;55.848;35.916;2023-05-14T14:07:17;0.60;;;0.60;;
76939;SDS011;65885;55.848;35.916;2023-05-14T14:09:45;0.88;;;0.88;;
76939;SDS011;65885;55.848;35.916;2023-05-14T14:12:12;1.05;;;0.85;;
76939;SDS011;65885;55.848;35.916;2023-05-14T14:14:40;1.23;;;0.60;;
76939;SDS011;65885;55.848;35.916;2023-05-14T14:17:09;0.77;;;0.77;;
76939;SDS011;65885;55.848;35.916;2023-05-14T14:19:36;1.58;;;0.80;;
76939;SDS011;65885;55.848;35.916;2023-05-14T14:22:03;0.60;;;0.52;;
76939;SDS011;65885;55.848;35.916;2023-05-14T14:24:31;0.68;;;0.68;;
76939;SDS011;65885;55.848;35.916;2023-05-14T14:26:58;0.63;;;0.63;;
76939;SDS011;65885;55.848;35.916;2023-05-14T14:29:26;0.57;;;0.50;;
76939;SDS011;65885;55.848;35.916;2023-05-14T14:31:55;0.75;;;0.68;;
76939;SDS011;65885;55.848;35.916;2023-05-14T14:34:24;0.70;;;0.70;;
76939;SDS011;65885;55.848;35.916;2023-05-14T14:36:51;0.77;;;0.57;;
76939;SDS011;65885;55.848;35.916;2023-05-14T14:39:19;0.60;;;0.60;;
76939;SDS011;65885;55.848;35.916;2023-05-14T14:41:48;0.77;;;0.77;;
76939;SDS011;65885;55.848;35.916;2023-05-14T14:44:16;0.93;;;0.80;;
76939;SDS011;65885;55.848;35.916;2023-05-14T14:46:43;1.23;;;0.57;;
76939;SDS011;65885;55.848;35.916;2023-05-14T14:49:11;0.85;;;0.70;;
76939;SDS011;65885;55.848;35.916;2023-05-14T14:51:40;0.80;;;0.63;;
76939;SDS011;65885;55.848;35.916;2023-05-14T14:54:07;1.55;;;1.10;;
76939;SDS011;65885;55.848;35.916;2023-05-14T14:56:34;0.90;;;0.70;;